Wednesday, December 19, 2018, 10:50 AM EST
Back to Local

KDOV, Dover Air Force Base

Location: Dover, DE, United States Lat: 39.133
Local Time: 10:50 AM EST (15:50 GMT) Lon: -75.467
Time Zone: US/Eastern Elev: 29 ft

Show me the last for .
Show Decoded

2018-12-19 09:56 METAR KDOV 191456Z AUTO 21007KT 10SM CLR 04/M01 A3022 RMK AO2 SLP237 T00401006
                 52009 $ =
2018-12-19 08:56 METAR KDOV 191356Z AUTO 20003KT 10SM CLR 01/M02 A3021 RMK AO2 SLP234 T00051016 $
                 =
2018-12-19 07:56 METAR KDOV 191256Z AUTO 21004KT 10SM CLR M03/M04 A3020 RMK AO2 SLP230 T10271041
                 $ =
2018-12-19 06:56 METAR KDOV 191156Z AUTO 00000KT 10SM CLR M03/M05 A3019 RMK AO2 SLP227 T10321048
                 11016 21041 55003 $ =
2018-12-19 05:56 METAR KDOV 191056Z AUTO 00000KT 10SM CLR M03/M05 A3018 RMK AO2 SLP223 T10311054
                 $ =
2018-12-19 04:56 METAR KDOV 190956Z AUTO 00000KT 10SM CLR M03/M05 A3019 RMK AO2 SLP227 T10281051
                 $ =
2018-12-19 03:56 METAR KDOV 190856Z AUTO 00000KT 10SM CLR M03/M05 A3020 RMK AO2 SLP230 T10291052
                 52010 $ =
2018-12-19 02:56 METAR KDOV 190756Z AUTO 00000KT 10SM CLR M02/M05 A3019 RMK AO2 SLP227 T10231053
                 $ =
2018-12-19 01:56 METAR KDOV 190656Z AUTO 00000KT 10SM CLR M02/M05 A3018 RMK AO2 SLP223 T10201053
                 $ =
2018-12-19 00:56 METAR KDOV 190556Z AUTO 00000KT 10SM CLR M02/M05 A3017 RMK AO2 SLP220 T10211051
                 10026 21024 56004 $ =
2018-12-18 23:56 METAR KDOV 190456Z AUTO 00000KT 10SM CLR M02/M05 A3017 RMK AO2 SLP220 T10201052
                 400701020 $ =
2018-12-18 22:56 METAR KDOV 190356Z AUTO 00000KT 10SM CLR M01/M05 A3018 RMK AO2 SLP223 T10151048
                 $ =
2018-12-18 21:56 METAR KDOV 190256Z AUTO 20003KT 10SM CLR 00/M05 A3018 RMK AO2 SLP223 T00011053
                 53004 $ =
2018-12-18 20:56 METAR KDOV 190156Z AUTO 00000KT 10SM CLR 00/M06 A3017 RMK AO2 SLP220 T10031057 $
                 =
2018-12-18 19:56 METAR KDOV 190056Z AUTO 30004KT 10SM CLR 00/M06 A3017 RMK AO2 SLP220 T00021062 $
                 =
2018-12-18 18:56 METAR KDOV 182356Z AUTO 29004KT 10SM CLR 03/M07 A3017 RMK AO2 SLP220 T00251071
                 10070 20016 52020 $ =
2018-12-18 17:56 METAR KDOV 182256Z AUTO 31005KT 10SM CLR 02/M07 A3015 RMK AO2 SLP213 T00221066 $
                 =
2018-12-18 16:56 METAR KDOV 182156Z AUTO 29006KT 10SM CLR 04/M07 A3013 RMK AO2 SLP206 T00401066 $
                 =
2018-12-18 15:56 METAR KDOV 182056Z AUTO 30012KT 10SM CLR 06/M07 A3011 RMK AO2 SLP200 T00621067
                 52010 $ =
2018-12-18 14:56 METAR KDOV 181956Z AUTO 29011G19KT 10SM CLR 07/M07 A3009 RMK AO2 SLP193
                 T00661074 $ =
2018-12-18 13:56 METAR KDOV 181856Z AUTO 31011KT 10SM CLR 07/M08 A3009 RMK AO2 SLP193 T00681076 $
                 =
2018-12-18 12:56 METAR KDOV 181756Z AUTO 30011KT 10SM CLR 07/M07 A3008 RMK AO2 SLP189 T00651072
                 10065 20026 58005 $ =
2018-12-18 11:56 METAR KDOV 181656Z AUTO 29015KT 10SM CLR 06/M08 A3009 RMK AO2 SLP193 T00601076 $
                 =
2018-12-18 10:56 METAR KDOV 181556Z AUTO 32015G21KT 10SM CLR 06/M07 A3010 RMK AO2 PK WND 30026/15
                 SLP196 T00561069 $ =

Support USWX by starting your Amazon purchase here.